Time;durP1;ratioP1;P1;durP2;ratioP2;P2;SDS_P1;SDS_P2;PMS_P1;PMS_P2;Temp;Humidity;BMP_temperature;BMP_pressure;BME280_temperature;BME280_humidity;BME280_pressure;Samples;Min_cycle;Max_cycle;Signal;HPM_P1;HPM_P2
2022/12/15 00:38:46;;;;;;;52.15;24.75;;;;;;;-1.18;99.98;94941.63;4994715;28;20077;-93
2022/12/15 00:41:15;;;;;;;52.38;24.70;;;;;;;-1.16;100.00;94936.00;5002804;28;20047;-93
2022/12/15 00:43:42;;;;;;;53.15;25.30;;;;;;;-1.15;99.87;94938.44;5004459;28;20545;-92
2022/12/15 00:48:54;;;;;;;51.60;24.75;;;;;;;-1.26;100.00;94925.41;4995263;28;20506;-94
2022/12/15 00:51:20;;;;;;;50.22;24.23;;;;;;;-1.22;99.96;94929.13;5011076;28;20084;-93
2022/12/15 01:21:18;;;;;;;48.75;24.25;;;;;;;-1.16;100.00;94976.09;4994785;28;20054;-94
2022/12/15 01:23:45;;;;;;;50.55;24.48;;;;;;;-1.13;100.00;94970.19;5004405;28;20398;-93
2022/12/15 01:26:11;;;;;;;54.00;26.30;;;;;;;-1.28;100.00;94967.63;4999677;28;20042;-93
2022/12/15 01:28:38;;;;;;;53.08;25.15;;;;;;;-1.23;100.00;94973.72;4995947;28;20051;-93
2022/12/15 01:31:11;;;;;;;47.00;23.58;;;;;;;-1.22;100.00;94977.19;4999097;28;20073;-94
2022/12/15 01:33:41;;;;;;;45.07;22.67;;;;;;;-1.23;100.00;94970.25;4995833;28;20050;-93
2022/12/15 01:36:10;;;;;;;44.63;21.30;;;;;;;-1.24;99.95;94980.16;5006456;28;20053;-93
2022/12/15 01:38:37;;;;;;;52.25;24.35;;;;;;;-1.35;99.89;94974.06;4999991;28;20089;-93
2022/12/15 01:41:06;;;;;;;49.25;23.83;;;;;;;-1.34;99.96;94983.69;4998228;28;20134;-94
2022/12/15 01:43:34;;;;;;;46.97;22.77;;;;;;;-1.30;99.41;94985.81;5006467;28;20050;-93
2022/12/15 01:46:04;;;;;;;46.40;22.38;;;;;;;-1.34;99.39;94981.00;5009959;28;20041;-93
2022/12/15 01:48:39;;;;;;;48.10;23.33;;;;;;;-1.30;99.47;94980.47;5017233;28;20042;-93
2022/12/15 01:51:14;;;;;;;47.92;23.27;;;;;;;-1.34;99.54;94983.69;4997539;28;20069;-93
2022/12/15 01:53:45;;;;;;;44.15;21.52;;;;;;;-1.30;99.45;94981.25;5006115;28;20054;-93
2022/12/15 01:56:13;;;;;;;48.22;23.23;;;;;;;-1.37;99.38;94976.22;5012956;28;20049;-94
2022/12/15 01:58:44;;;;;;;48.85;23.58;;;;;;;-1.34;99.66;94986.34;5013830;28;20050;-93
2022/12/15 02:01:12;;;;;;;54.58;24.60;;;;;;;-1.34;99.30;94975.66;5020151;28;20513;-93
2022/12/15 02:03:41;;;;;;;47.90;23.98;;;;;;;-1.28;98.97;94986.31;5010364;28;20046;-94
2022/12/15 02:06:12;;;;;;;48.67;22.48;;;;;;;-1.25;99.06;94993.75;5000348;28;20070;-94
2022/12/15 02:08:41;;;;;;;52.63;24.58;;;;;;;-1.27;99.05;94990.56;5009836;28;20082;-93
2022/12/15 02:11:23;;;;;;;51.00;24.58;;;;;;;-1.27;99.13;94996.72;5018953;28;20053;-93
2022/12/15 02:13:59;;;;;;;49.08;23.25;;;;;;;-1.30;99.17;94996.50;5009359;28;20050;-93
2022/12/15 02:16:38;;;;;;;49.03;23.67;;;;;;;-1.28;99.18;94986.31;5008866;28;20552;-92
2022/12/15 02:19:24;;;;;;;47.00;22.30;;;;;;;-1.25;98.94;94993.75;4990481;28;20490;-94
2022/12/15 02:22:06;;;;;;;45.35;22.70;;;;;;;-1.27;98.93;95001.25;5000359;28;20049;-93
2022/12/15 02:25:05;;;;;;;55.30;25.95;;;;;;;-1.41;99.15;95001.88;5004699;28;20093;-93
2022/12/15 02:27:52;;;;;;;55.13;25.33;;;;;;;-1.40;99.01;95003.47;4980950;28;20736;-94
2022/12/15 02:30:28;;;;;;;51.42;24.52;;;;;;;-1.52;98.89;95011.00;5002214;28;20129;-93
2022/12/15 02:33:03;;;;;;;56.60;25.73;;;;;;;-1.47;98.88;95008.31;4996281;28;20482;-93
2022/12/15 02:35:36;;;;;;;51.08;26.15;;;;;;;-1.50;98.78;95008.88;4998461;28;20047;-93
2022/12/15 02:38:03;;;;;;;53.80;26.13;;;;;;;-1.49;98.76;95026.47;5004487;28;20703;-93
2022/12/15 02:40:30;;;;;;;56.72;25.50;;;;;;;-1.50;98.51;95024.88;5004648;28;20581;-93
2022/12/15 02:43:00;;;;;;;48.22;23.58;;;;;;;-1.45;98.38;95030.19;5006307;28;20184;-93
2022/12/15 02:45:36;;;;;;;53.15;25.63;;;;;;;-1.41;98.33;95022.41;5010758;28;20137;-90
2022/12/15 02:48:12;;;;;;;51.47;24.02;;;;;;;-1.38;98.21;95028.03;4997226;28;20574;-93
2022/12/15 02:50:57;;;;;;;52.50;24.25;;;;;;;-1.41;98.00;95033.09;4996040;28;20050;-93
2022/12/15 02:53:40;;;;;;;56.38;24.17;;;;;;;-1.41;98.16;95036.59;5011163;28;20054;-92
2022/12/15 02:56:17;;;;;;;48.63;23.17;;;;;;;-1.40;97.98;95038.19;5009571;28;20490;-94
2022/12/15 02:58:55;;;;;;;50.13;24.38;;;;;;;-1.39;97.76;95058.47;5009858;28;20137;-93
2022/12/15 03:01:30;;;;;;;57.60;24.35;;;;;;;-1.43;98.08;95062.75;5005277;28;20050;-93
2022/12/15 03:04:00;;;;;;;52.70;24.65;;;;;;;-1.43;97.92;95062.75;4988882;28;20062;-94
2022/12/15 03:06:28;;;;;;;49.92;23.10;;;;;;;-1.40;97.78;95070.22;4995384;28;20088;-93
2022/12/15 03:08:54;;;;;;;54.60;26.58;;;;;;;-1.41;97.90;95068.63;4991332;28;20462;-93
2022/12/15 03:11:22;;;;;;;55.15;24.70;;;;;;;-1.39;97.91;95069.16;5015366;28;20137;-94
2022/12/15 03:13:49;;;;;;;51.05;23.55;;;;;;;-1.37;97.86;95072.34;4998616;28;20050;-93
2022/12/15 03:16:18;;;;;;;53.42;25.08;;;;;;;-1.42;97.88;95080.38;5007027;28;20409;-93
2022/12/15 03:18:49;;;;;;;51.67;25.00;;;;;;;-1.40;97.92;95078.25;4999018;28;20478;-93
2022/12/15 03:21:16;;;;;;;47.90;23.60;;;;;;;-1.41;97.81;95071.31;5015149;28;20056;-93
2022/12/15 03:23:43;;;;;;;56.47;25.70;;;;;;;-1.38;97.71;95073.41;5006620;28;20081;-93
2022/12/15 03:26:11;;;;;;;46.88;23.55;;;;;;;-1.38;97.50;95072.63;4999408;28;20043;-93
2022/12/15 03:28:38;;;;;;;51.20;24.58;;;;;;;-1.38;97.86;95078.75;5011292;28;20489;-94
2022/12/15 03:31:06;;;;;;;50.55;23.48;;;;;;;-1.40;97.53;95072.09;5003423;28;20050;-93
2022/12/15 03:33:32;;;;;;;54.67;25.52;;;;;;;-1.52;97.80;95075.06;4995157;28;20054;-93
2022/12/15 03:36:01;;;;;;;54.95;24.80;;;;;;;-1.50;97.97;95083.63;4994807;28;20139;-93
2022/12/15 03:38:27;;;;;;;52.00;25.48;;;;;;;-1.47;97.40;95087.59;5003118;28;20060;-93
2022/12/15 03:40:54;;;;;;;49.45;23.70;;;;;;;-1.47;97.62;95091.06;4987261;28;20046;-91
2022/12/15 03:43:21;;;;;;;58.42;26.73;;;;;;;-1.55;97.85;95080.97;5003049;28;20076;-93
2022/12/15 03:45:48;;;;;;;53.60;25.88;;;;;;;-1.73;98.21;95084.22;5009922;28;20054;-93
2022/12/15 03:48:15;;;;;;;56.63;25.63;;;;;;;-1.59;98.30;95090.59;5010025;28;20042;-94
2022/12/15 03:50:43;;;;;;;53.53;25.95;;;;;;;-1.65;98.48;95081.00;5013131;28;20084;-93
2022/12/15 03:53:11;;;;;;;61.63;27.58;;;;;;;-1.60;98.32;95084.44;5002951;28;20097;-93
2022/12/15 03:55:38;;;;;;;59.63;26.52;;;;;;;-1.58;98.04;95092.19;4995881;28;20078;-93
2022/12/15 03:58:05;;;;;;;55.83;25.23;;;;;;;-1.58;98.04;95087.63;5009126;28;20467;-93
2022/12/15 04:00:32;;;;;;;54.28;24.52;;;;;;;-1.64;98.03;95093.28;5001458;28;20606;-93
2022/12/15 04:02:59;;;;;;;54.78;24.73;;;;;;;-1.62;98.01;95083.09;4998609;28;20088;-94
2022/12/15 04:05:28;;;;;;;55.85;25.05;;;;;;;-1.56;97.71;95089.25;5006181;28;20084;-93
2022/12/15 04:07:56;;;;;;;51.50;23.60;;;;;;;-1.56;97.63;95089.25;5002769;28;20038;-93
2022/12/15 04:10:27;;;;;;;51.50;24.08;;;;;;;-1.53;97.46;95100.16;5000865;28;20042;-89
2022/12/15 04:12:57;;;;;;;47.75;22.50;;;;;;;-1.55;97.16;95099.66;4989825;28;20490;-93
2022/12/15 04:15:25;;;;;;;51.83;24.45;;;;;;;-1.64;96.97;95109.28;5006428;28;20077;-92
2022/12/15 04:17:51;;;;;;;52.90;25.10;;;;;;;-1.66;97.20;95111.44;5005952;28;20052;-93
2022/12/15 04:20:18;;;;;;;49.50;23.27;;;;;;;-1.62;97.28;95113.28;4998970;28;20050;-93
2022/12/15 04:22:47;;;;;;;54.28;25.48;;;;;;;-1.61;97.20;95114.09;5004031;28;20050;-93
2022/12/15 05:33:58;;;;;;;59.28;27.30;;;;;;;-1.84;97.71;95161.63;5006064;28;20073;-94
2022/12/15 05:36:25;;;;;;;63.88;27.90;;;;;;;-1.81;97.85;95162.16;5010060;28;20057;-93
2022/12/15 05:38:53;;;;;;;50.60;24.20;;;;;;;-1.81;98.03;95170.19;5012735;28;20054;-93
2022/12/15 05:41:22;;;;;;;60.15;26.20;;;;;;;-1.82;98.23;95171.25;5021246;28;20073;-93
2022/12/15 05:43:49;;;;;;;52.35;25.40;;;;;;;-1.84;98.02;95166.97;5017905;28;20073;-94
2022/12/15 05:46:15;;;;;;;57.10;26.42;;;;;;;-1.81;97.88;95152.28;5014983;28;20049;-93
2022/12/15 05:48:42;;;;;;;56.00;26.73;;;;;;;-1.78;97.71;95164.28;5002042;28;20057;-94
2022/12/15 05:51:11;;;;;;;56.55;25.80;;;;;;;-1.76;97.62;95159.50;5015201;28;20141;-93
2022/12/15 05:53:39;;;;;;;55.45;25.83;;;;;;;-1.72;97.70;95171.22;5012043;28;20073;-93
2022/12/15 05:56:08;;;;;;;48.03;23.98;;;;;;;-1.72;97.51;95163.19;5012015;28;20125;-93
2022/12/15 05:58:35;;;;;;;56.20;26.63;;;;;;;-1.85;97.68;95168.03;5010892;28;20049;-93
2022/12/15 06:01:07;;;;;;;54.03;25.20;;;;;;;-1.87;97.34;95175.50;5001852;28;20042;-93
2022/12/15 06:03:34;;;;;;;54.90;26.07;;;;;;;-1.77;97.38;95176.59;5009752;28;20133;-93
2022/12/15 06:06:02;;;;;;;51.35;24.67;;;;;;;-1.78;97.17;95188.28;5002290;28;20050;-93
2022/12/15 06:08:33;;;;;;;53.65;25.98;;;;;;;-1.76;97.00;95191.53;5014445;28;20096;-93
2022/12/15 06:11:00;;;;;;;56.83;25.55;;;;;;;-1.74;97.07;95200.03;5005046;28;20121;-93
2022/12/15 06:13:30;;;;;;;52.70;24.73;;;;;;;-1.72;96.89;95209.41;5014421;28;20453;-94
2022/12/15 06:15:58;;;;;;;53.53;25.30;;;;;;;-1.69;96.81;95202.72;5007292;28;20045;-93
2022/12/15 06:18:27;;;;;;;61.67;25.90;;;;;;;-1.81;96.95;95215.53;5017601;28;20080;-92
2022/12/15 06:20:58;;;;;;;65.85;29.17;;;;;;;-1.76;96.51;95212.88;4991084;28;20081;-94
2022/12/15 06:23:25;;;;;;;53.15;25.98;;;;;;;-1.73;96.49;95204.31;5007343;28;20081;-93
2022/12/15 06:25:54;;;;;;;52.63;25.70;;;;;;;-1.76;96.64;95200.31;5006625;28;20046;-93
2022/12/15 06:28:22;;;;;;;53.40;24.15;;;;;;;-1.75;96.41;95209.13;5008613;28;20054;-93
2022/12/15 06:30:51;;;;;;;47.78;24.50;;;;;;;-1.73;96.55;95223.78;5013158;28;20086;-93
2022/12/15 06:33:18;;;;;;;57.38;26.02;;;;;;;-1.73;96.27;95229.13;5017989;28;20068;-92
2022/12/15 06:35:45;;;;;;;51.25;24.35;;;;;;;-1.73;96.33;95228.31;5022283;28;20046;-95
2022/12/15 06:38:11;;;;;;;52.95;24.92;;;;;;;-1.72;96.27;95229.91;5015324;28;20041;-92
2022/12/15 06:40:38;;;;;;;56.95;25.88;;;;;;;-1.72;96.56;95229.91;5012909;28;20057;-90
2022/12/15 06:43:08;;;;;;;57.83;25.65;;;;;;;-1.73;96.75;95229.13;5006912;28;20080;-91
2022/12/15 06:45:35;;;;;;;60.85;26.17;;;;;;;-1.80;96.93;95233.16;5009862;28;20145;-91
2022/12/15 06:48:02;;;;;;;58.45;27.65;;;;;;;-1.79;97.02;95235.53;5014339;28;20084;-91
2022/12/15 06:50:28;;;;;;;53.17;25.75;;;;;;;-1.84;97.17;95228.31;5013308;28;20054;-92
2022/12/15 06:52:56;;;;;;;58.78;27.42;;;;;;;-1.84;97.26;95239.00;5019186;28;20121;-91
2022/12/15 06:55:23;;;;;;;51.20;25.98;;;;;;;-1.78;97.19;95247.00;5004773;28;20054;-91
2022/12/15 06:57:50;;;;;;;58.47;25.65;;;;;;;-1.73;96.88;95244.34;5019768;28;20068;-93
2022/12/15 07:00:19;;;;;;;54.67;27.05;;;;;;;-1.73;96.74;95247.00;5008802;28;20110;-91
2022/12/15 07:02:46;;;;;;;62.83;28.20;;;;;;;-1.75;96.81;95249.16;5019717;28;20137;-91
2022/12/15 07:05:13;;;;;;;60.33;27.50;;;;;;;-1.71;97.08;95263.56;5003527;28;20178;-92
2022/12/15 07:07:39;;;;;;;60.75;28.30;;;;;;;-1.72;97.22;95256.59;5010671;28;20046;-92
2022/12/15 07:10:06;;;;;;;56.10;25.50;;;;;;;-1.66;97.28;95267.03;5017256;28;20136;-92
2022/12/15 07:12:33;;;;;;;67.40;31.10;;;;;;;-1.65;96.52;95259.84;5014637;28;20057;-92
2022/12/15 07:15:00;;;;;;;58.50;27.50;;;;;;;-1.66;96.17;95260.91;5009386;28;20129;-85
2022/12/15 07:17:28;;;;;;;60.10;27.58;;;;;;;-1.68;96.08;95269.16;4993773;28;20508;-86
2022/12/15 07:19:55;;;;;;;63.65;27.67;;;;;;;-1.65;96.29;95273.19;4993509;28;20053;-84
2022/12/15 07:22:22;;;;;;;58.78;28.05;;;;;;;-1.72;96.37;95268.13;4993708;28;20152;-89
2022/12/15 07:24:48;;;;;;;54.92;27.02;;;;;;;-1.67;96.44;95259.28;5001567;28;20050;-85
2022/12/15 07:27:16;;;;;;;63.70;30.00;;;;;;;-1.73;96.26;95261.16;4993542;28;20046;-85
2022/12/15 07:29:43;;;;;;;62.53;29.00;;;;;;;-1.72;96.95;95256.59;4998637;28;20042;-81
2022/12/15 07:32:10;;;;;;;68.63;28.25;;;;;;;-1.68;97.03;95268.34;5002196;28;20056;-89
2022/12/15 07:34:38;;;;;;;63.90;29.65;;;;;;;-1.76;97.00;95266.25;4994291;28;20056;-87
2022/12/15 07:37:05;;;;;;;70.30;29.30;;;;;;;-1.67;97.40;95269.97;5004480;28;20398;-86
2022/12/15 07:39:31;;;;;;;68.18;29.85;;;;;;;-1.65;96.63;95278.50;4997096;28;20473;-89
2022/12/15 07:41:58;;;;;;;71.20;31.67;;;;;;;-1.61;96.51;95288.41;5000473;28;20489;-85
2022/12/15 07:44:25;;;;;;;74.00;32.45;;;;;;;-1.66;96.73;95292.94;5005395;28;20074;-83
2022/12/15 07:46:51;;;;;;;68.07;30.38;;;;;;;-1.65;96.34;95286.53;4996445;28;20495;-84
2022/12/15 07:49:19;;;;;;;62.03;28.92;;;;;;;-1.62;96.33;95281.47;4997982;28;20051;-82
2022/12/15 07:51:47;;;;;;;66.07;29.02;;;;;;;-1.58;96.33;95273.69;5001316;28;20049;-83
2022/12/15 07:54:14;;;;;;;63.53;29.50;;;;;;;-1.58;96.06;95263.81;4993200;28;20604;-88
2022/12/15 07:56:41;;;;;;;66.95;28.88;;;;;;;-1.57;96.22;95259.28;4993165;28;20511;-88
2022/12/15 07:59:09;;;;;;;63.95;28.50;;;;;;;-1.56;96.61;95244.88;4992545;28;20046;-83
2022/12/15 08:01:36;;;;;;;63.78;29.30;;;;;;;-1.54;96.32;95241.94;4994104;28;20058;-85
2022/12/15 08:04:03;;;;;;;61.20;28.67;;;;;;;-1.60;96.77;95244.63;5006659;28;20049;-84
2022/12/15 08:06:29;;;;;;;67.43;29.30;;;;;;;-1.54;96.88;95253.41;5012576;28;20136;-83
2022/12/15 08:08:57;;;;;;;64.85;28.90;;;;;;;-1.53;96.42;95260.34;4999255;28;20050;-84
2022/12/15 08:11:24;;;;;;;67.53;29.10;;;;;;;-1.71;96.91;95247.56;4992436;28;20057;-81
2022/12/15 08:13:51;;;;;;;63.90;29.33;;;;;;;-1.62;97.15;95240.59;4992276;28;20078;-85
2022/12/15 08:16:18;;;;;;;62.55;29.45;;;;;;;-1.49;96.97;95242.72;4999645;28;20488;-88
2022/12/15 08:18:45;;;;;;;58.97;27.25;;;;;;;-1.46;96.16;95255.56;5004845;28;20046;-89
2022/12/15 08:21:13;;;;;;;65.70;28.90;;;;;;;-1.52;95.48;95253.94;4998387;28;20101;-86
2022/12/15 08:23:40;;;;;;;58.00;26.55;;;;;;;-1.50;95.68;95259.03;5002976;28;20572;-85
2022/12/15 08:26:09;;;;;;;61.75;27.50;;;;;;;-1.47;95.71;95269.94;4999812;28;20050;-87
2022/12/15 08:28:38;;;;;;;60.08;28.55;;;;;;;-1.42;95.69;95288.63;4993647;28;20046;-87
2022/12/15 08:31:06;;;;;;;57.42;27.13;;;;;;;-1.42;95.54;95272.63;5002323;28;20049;-87
2022/12/15 08:33:33;;;;;;;64.68;29.38;;;;;;;-1.47;95.56;95275.28;4994500;28;20058;-90
2022/12/15 08:36:01;;;;;;;60.65;27.98;;;;;;;-1.32;95.73;95293.97;5000063;28;20141;-88
2022/12/15 08:38:28;;;;;;;67.15;28.77;;;;;;;-1.36;95.40;95290.25;4995821;28;20050;-90
2022/12/15 08:40:55;;;;;;;67.72;29.88;;;;;;;-1.34;95.41;95285.44;5007636;28;20057;-84
2022/12/15 08:43:24;;;;;;;65.45;28.55;;;;;;;-1.18;95.64;95293.44;5000075;28;20450;-89
2022/12/15 08:45:50;;;;;;;66.35;28.63;;;;;;;-1.07;95.04;95300.38;5014033;28;20042;-83
2022/12/15 08:48:17;;;;;;;61.45;28.48;;;;;;;-1.33;92.96;95324.44;5008127;28;20046;-85
2022/12/15 08:50:44;;;;;;;57.58;27.67;;;;;;;-1.32;93.39;95326.03;5009532;28;20477;-85
2022/12/15 08:53:11;;;;;;;58.08;28.38;;;;;;;-1.27;93.64;95327.88;5007461;28;20080;-82
2022/12/15 08:55:39;;;;;;;59.85;28.52;;;;;;;-1.12;93.91;95324.41;4997812;28;20113;-82
2022/12/15 08:58:06;;;;;;;60.17;27.58;;;;;;;-1.04;93.97;95315.88;5004191;28;20464;-81
2022/12/15 09:00:34;;;;;;;65.50;29.17;;;;;;;-1.04;94.46;95331.91;4999279;28;20490;-81
2022/12/15 09:03:00;;;;;;;60.50;28.55;;;;;;;-1.09;94.00;95339.91;4995308;28;20509;-83
2022/12/15 09:05:27;;;;;;;56.75;26.60;;;;;;;-1.01;93.92;95341.22;4996051;28;20678;-82
2022/12/15 09:07:55;;;;;;;56.90;27.02;;;;;;;-1.07;93.58;95345.78;4988022;28;20053;-81
2022/12/15 09:10:22;;;;;;;59.70;27.40;;;;;;;-1.03;93.30;95351.41;4998932;28;20464;-81
2022/12/15 09:12:49;;;;;;;67.85;29.15;;;;;;;-1.05;93.58;95357.00;4997816;28;20045;-82
2022/12/15 09:15:15;;;;;;;67.38;28.80;;;;;;;-1.12;93.65;95351.13;5000660;28;20046;-83
2022/12/15 09:17:43;;;;;;;62.00;29.50;;;;;;;-1.07;93.93;95345.78;5003683;28;20050;-85
2022/12/15 09:20:11;;;;;;;64.10;29.00;;;;;;;-1.01;93.85;95334.00;4998903;28;20071;-82
2022/12/15 09:22:37;;;;;;;63.53;29.40;;;;;;;-0.97;93.60;95332.41;4996666;28;20049;-79
2022/12/15 09:25:05;;;;;;;58.70;27.77;;;;;;;-0.93;93.80;95343.38;5001381;28;20049;-80
2022/12/15 09:27:33;;;;;;;55.95;25.90;;;;;;;-0.90;93.55;95332.13;4995153;28;20050;-79
2022/12/15 09:29:59;;;;;;;51.28;26.98;;;;;;;-0.83;93.74;95333.47;4995437;28;20045;-78
2022/12/15 09:32:26;;;;;;;57.38;26.33;;;;;;;-0.81;93.46;95330.50;4990429;28;20556;-78
2022/12/15 09:34:54;;;;;;;58.58;26.10;;;;;;;-0.88;92.62;95324.66;4994443;28;20501;-78
2022/12/15 09:37:21;;;;;;;48.78;23.60;;;;;;;-0.98;92.08;95313.97;4995137;28;20515;-77
2022/12/15 09:39:48;;;;;;;51.75;25.02;;;;;;;-1.03;91.81;95309.44;4994084;28;20051;-78
2022/12/15 09:42:24;;;;;;;56.80;25.17;;;;;;;-0.99;92.20;95299.00;4994478;28;20046;-77
2022/12/15 09:44:59;;;;;;;56.28;26.38;;;;;;;-0.95;91.92;95286.69;4994657;28;20045;-77
2022/12/15 09:47:35;;;;;;;56.63;26.25;;;;;;;-0.99;92.06;95274.94;4998699;28;20578;-78
2022/12/15 09:50:07;;;;;;;60.38;27.30;;;;;;;-0.95;92.80;95281.34;4994524;28;20503;-77
2022/12/15 09:52:44;;;;;;;50.08;22.85;;;;;;;-0.84;93.20;95282.94;4994298;28;20482;-79
2022/12/15 09:55:18;;;;;;;62.75;29.92;;;;;;;-0.87;92.67;95288.84;4994427;28;20054;-77
2022/12/15 09:57:50;;;;;;;62.15;27.45;;;;;;;-0.82;92.76;95283.47;5000129;28;20109;-78
2022/12/15 10:00:21;;;;;;;59.60;27.23;;;;;;;-0.88;92.61;95277.34;4989061;28;20047;-92
2022/12/15 10:03:18;;;;;;;60.00;27.48;;;;;;;-0.83;92.36;95289.91;5002936;28;20057;-91
2022/12/15 10:05:58;;;;;;;58.75;26.77;;;;;;;-0.79;92.52;95289.06;5009521;28;20050;-86
2022/12/15 10:08:30;;;;;;;66.20;29.42;;;;;;;-0.76;93.09;95284.25;5003625;28;20450;-85
2022/12/15 10:10:59;;;;;;;57.55;26.88;;;;;;;-0.75;92.75;95281.31;5003191;28;20053;-87
2022/12/15 10:13:38;;;;;;;68.18;27.38;;;;;;;-0.80;92.97;95284.78;4994528;28;20061;-87
2022/12/15 10:16:15;;;;;;;61.10;26.55;;;;;;;-0.71;93.20;95281.56;4991516;28;20050;-82
2022/12/15 10:18:55;;;;;;;69.03;29.58;;;;;;;-0.75;93.22;95272.47;5002127;28;20050;-86
2022/12/15 10:21:26;;;;;;;64.30;27.95;;;;;;;-0.63;93.10;95272.97;4995247;28;20061;-87
2022/12/15 10:23:57;;;;;;;65.05;28.90;;;;;;;-0.81;92.83;95261.81;4997381;28;20141;-85
2022/12/15 10:26:31;;;;;;;64.18;28.73;;;;;;;-0.72;92.77;95245.22;4998780;28;20054;-82
2022/12/15 10:29:18;;;;;;;63.47;28.02;;;;;;;-0.71;92.70;95244.13;4994590;28;20401;-85
2022/12/15 10:31:52;;;;;;;70.68;29.48;;;;;;;-0.93;92.82;95242.63;5003570;28;20064;-84
2022/12/15 10:34:25;;;;;;;63.88;26.63;;;;;;;-0.90;93.18;95251.94;4997801;28;20046;-83
2022/12/15 10:36:54;;;;;;;71.57;29.65;;;;;;;-0.92;93.78;95254.09;5002182;28;20101;-86
2022/12/15 10:39:22;;;;;;;65.85;27.58;;;;;;;-0.84;93.68;95259.66;5001470;28;20073;-87
2022/12/15 10:42:11;;;;;;;70.00;28.85;;;;;;;-0.72;93.81;95263.94;4994651;28;20053;-88
2022/12/15 10:44:40;;;;;;;75.80;29.77;;;;;;;-0.75;93.63;95261.78;5002960;28;20133;-85
2022/12/15 10:47:10;;;;;;;66.18;29.63;;;;;;;-0.76;93.69;95260.19;4999298;28;20050;-81
2022/12/15 10:49:37;;;;;;;72.50;29.95;;;;;;;-0.75;93.92;95259.13;4993015;28;20486;-85
2022/12/15 10:52:05;;;;;;;68.18;28.85;;;;;;;-0.76;93.81;95273.56;4993183;28;20137;-81
2022/12/15 10:54:36;;;;;;;76.72;28.80;;;;;;;-0.90;94.28;95268.78;5001877;28;20432;-84
2022/12/15 10:57:16;;;;;;;70.80;29.45;;;;;;;-0.90;94.04;95251.94;4994552;28;20049;-87
2022/12/15 10:59:42;;;;;;;69.72;28.90;;;;;;;-0.81;93.88;95245.78;4991079;28;20044;-82
2022/12/15 11:02:28;;;;;;;69.78;29.58;;;;;;;-0.87;93.48;95241.53;4992940;28;20050;-83
2022/12/15 11:04:56;;;;;;;67.20;28.42;;;;;;;-0.78;92.57;95239.09;4993093;28;20445;-82
2022/12/15 11:07:35;;;;;;;63.70;27.92;;;;;;;-0.63;93.10;95235.53;4997326;28;20046;-84
2022/12/15 11:10:14;;;;;;;63.28;29.05;;;;;;;-0.58;93.36;95228.28;5000270;28;20042;-82
2022/12/15 11:12:51;;;;;;;60.88;29.20;;;;;;;-0.54;93.07;95242.72;4995110;28;20073;-83
2022/12/15 11:15:40;;;;;;;60.40;27.23;;;;;;;-0.56;91.57;95241.41;4993495;28;20124;-85
2022/12/15 11:18:13;;;;;;;62.75;28.73;;;;;;;-0.55;92.18;95237.66;4997562;28;20454;-81
2022/12/15 11:20:45;;;;;;;69.60;30.02;;;;;;;-0.56;92.48;95215.47;4993567;28;20472;-84
2022/12/15 11:23:18;;;;;;;65.20;28.58;;;;;;;-0.58;92.54;95204.22;5001146;28;20104;-82
2022/12/15 11:25:50;;;;;;;67.25;27.55;;;;;;;-0.49;92.79;95209.81;5000888;28;20404;-84
2022/12/15 11:28:21;;;;;;;67.00;28.38;;;;;;;-0.45;93.15;95212.72;4993530;28;20053;-84
2022/12/15 11:30:54;;;;;;;66.13;27.17;;;;;;;-0.44;92.90;95211.66;4996072;28;20060;-80
2022/12/15 11:33:20;;;;;;;75.53;30.27;;;;;;;-0.51;93.04;95220.00;5001375;28;20053;-84
2022/12/15 11:36:01;;;;;;;68.45;30.00;;;;;;;-0.52;93.09;95210.38;5001089;28;20046;-81
2022/12/15 11:38:34;;;;;;;72.07;31.70;;;;;;;-0.45;93.25;95207.38;4994722;28;20054;-80
2022/12/15 11:41:06;;;;;;;;;;;;;;;-0.44;93.31;95217.00;5003003;28;20046;-85
2022/12/15 11:43:55;;;;;;;68.05;27.90;;;;;;;-0.48;93.44;95206.03;4994858;28;19921;-83
2022/12/15 11:46:24;;;;;;;74.97;31.65;;;;;;;-0.47;93.67;95207.66;5007882;28;20096;-84
2022/12/15 11:49:28;;;;;;;71.47;31.88;;;;;;;-0.45;93.68;95205.50;5004818;28;20065;-86
2022/12/15 11:52:02;;;;;;;71.63;31.05;;;;;;;-0.45;94.24;95189.47;4992409;28;20042;-83
2022/12/15 11:54:43;;;;;;;73.80;31.13;;;;;;;-0.53;94.15;95184.69;4994866;28;20494;-84
2022/12/15 11:57:26;;;;;;;62.35;28.70;;;;;;;-0.49;93.93;95176.91;5001184;28;20046;-84
2022/12/15 12:00:03;;;;;;;72.97;30.30;;;;;;;-0.56;93.98;95182.56;4999810;28;20048;-82
2022/12/15 12:02:43;;;;;;;69.88;29.00;;;;;;;-0.86;93.50;95187.00;5011479;28;20432;-83
2022/12/15 12:05:26;;;;;;;70.35;29.38;;;;;;;-0.72;94.02;95207.78;5000912;28;20046;-86
2022/12/15 12:08:00;;;;;;;69.30;30.88;;;;;;;-0.72;93.95;95203.25;5003038;28;20465;-86
2022/12/15 12:10:39;;;;;;;68.43;28.70;;;;;;;-0.71;93.30;95217.41;4993032;28;20047;-88
2022/12/15 12:13:19;;;;;;;69.18;30.50;;;;;;;-0.66;93.52;95222.72;4987166;28;20416;-86
2022/12/15 12:15:57;;;;;;;74.28;30.88;;;;;;;-0.59;93.71;95215.19;4993769;28;20052;-84
2022/12/15 12:18:31;;;;;;;68.00;29.35;;;;;;;-0.65;93.65;95214.44;4993360;28;20576;-82
2022/12/15 12:21:03;;;;;;;74.70;31.60;;;;;;;-0.72;93.90;95210.47;4986199;28;20046;-83
2022/12/15 12:23:34;;;;;;;74.68;31.38;;;;;;;-0.65;94.42;95202.94;5001797;28;20053;-82
2022/12/15 12:26:07;;;;;;;82.78;31.85;;;;;;;-0.61;94.50;95201.31;5000292;28;20043;-86
2022/12/15 12:28:46;;;;;;;73.10;31.58;;;;;;;-0.59;94.27;95191.94;5003204;28;20046;-91
2022/12/15 12:31:22;;;;;;;79.70;32.45;;;;;;;-0.65;94.61;95181.56;4995645;28;20100;-83
2022/12/15 12:33:55;;;;;;;68.03;29.55;;;;;;;-0.63;94.74;95172.16;5000627;28;20486;-85
2022/12/15 12:36:22;;;;;;;;;;;;;;;-0.62;95.33;95154.28;5001680;28;20101;-88
2022/12/15 12:38:52;;;;;;;58.67;29.05;;;;;;;-0.55;94.58;95147.53;5001261;28;19932;-84
2022/12/15 12:41:32;;;;;;;61.25;30.42;;;;;;;-0.63;93.74;95134.72;4999855;28;20050;-84
2022/12/15 12:44:04;;;;;;;65.18;28.83;;;;;;;-0.70;93.94;95128.13;5004729;28;20049;-85
2022/12/15 12:46:34;;;;;;;64.30;29.80;;;;;;;-0.62;94.83;95135.56;4995641;28;20085;-84
2022/12/15 12:49:06;;;;;;;68.88;31.15;;;;;;;-0.66;94.86;95127.28;4998128;28;20404;-88
2022/12/15 12:51:35;;;;;;;63.60;28.95;;;;;;;-0.60;94.87;95120.81;4996739;28;20057;-88
2022/12/15 12:54:02;;;;;;;65.60;29.80;;;;;;;-0.62;94.57;95108.81;5004558;28;20052;-90
2022/12/15 12:56:37;;;;;;;63.92;28.60;;;;;;;-0.59;94.10;95114.41;5004238;28;20050;-84
2022/12/15 12:59:25;;;;;;;65.80;30.40;;;;;;;-0.64;94.46;95105.63;4997572;28;20056;-85
2022/12/15 13:01:51;;;;;;;74.32;32.50;;;;;;;-0.73;94.30;95109.94;5003539;28;20053;-89
2022/12/15 13:04:43;;;;;;;68.93;32.53;;;;;;;-0.68;94.80;95115.25;5005883;28;20141;-86
2022/12/15 13:07:30;;;;;;;71.47;32.85;;;;;;;-0.66;94.96;95107.78;4996784;28;20046;-91
2022/12/15 13:10:13;;;;;;;62.10;29.98;;;;;;;-0.65;94.90;95114.72;4990853;28;20038;-87
2022/12/15 13:12:48;;;;;;;68.93;29.42;;;;;;;-0.65;95.25;95130.75;4995257;28;20152;-81
2022/12/15 13:15:28;;;;;;;64.53;30.48;;;;;;;-0.58;94.95;95123.22;4999156;28;20049;-89
2022/12/15 13:17:59;;;;;;;60.55;29.38;;;;;;;-0.62;94.64;95135.56;4985599;28;20064;-84
2022/12/15 13:20:28;;;;;;;71.32;31.42;;;;;;;-0.62;94.87;95132.88;4993258;28;20142;-83
2022/12/15 13:22:56;;;;;;;75.22;32.38;;;;;;;-0.69;95.00;95130.50;4993535;28;20472;-84
2022/12/15 13:25:35;;;;;;;67.65;32.55;;;;;;;-0.76;94.65;95129.22;4993740;28;20105;-88
2022/12/15 13:28:17;;;;;;;72.65;31.73;;;;;;;-0.94;94.88;95142.16;4987013;28;20046;-87
2022/12/15 13:31:16;;;;;;;72.03;31.98;;;;;;;-0.85;95.32;95143.16;4998841;28;20050;-87
2022/12/15 13:33:55;;;;;;;82.13;37.08;;;;;;;-0.86;95.17;95141.56;5016213;28;20103;-84
2022/12/15 13:36:58;;;;;;;77.70;32.72;;;;;;;-0.88;95.27;95143.72;5003672;28;20677;-85
2022/12/15 13:39:34;;;;;;;67.13;30.58;;;;;;;-0.89;95.43;95141.31;5000752;28;20057;-83
2022/12/15 13:42:34;;;;;;;71.55;32.08;;;;;;;-0.84;95.71;95134.06;4996002;28;20042;-88
2022/12/15 13:45:21;;;;;;;74.47;33.20;;;;;;;-0.79;95.76;95118.00;5016792;28;20093;-90
2022/12/15 13:47:53;;;;;;;72.15;33.75;;;;;;;-0.80;95.95;95113.72;5002568;28;20058;-87
2022/12/15 13:50:30;;;;;;;75.45;34.53;;;;;;;-0.81;96.58;95122.03;5012868;28;20043;-88
2022/12/15 13:53:02;;;;;;;77.15;35.42;;;;;;;-0.82;96.24;95113.22;5011752;28;20109;-85